X  Close Metar Aviation Weather Data        EGLF Farnborough
Temperature
4°C Temperature
2°C Dewpoint
87% Humidity



Wind
10 MPH
17 KM/H
4 M/S
9 KTS



40°
NE
Current Conditions

Mostly Cloudy Mostly Cloudy
Pressure 1027 (hPa) - 30.34 (inHg)
Visibility 30 (mile) - 48 (km)
Airport
Airport-code EGLF

Location: Farnborough
Distance: 5 (mi)

Metar:
METAR EGLF 042120Z AUTO 04009KT 9999 FEW018/// SCT023/// BKN027/// 04/02 Q1027

Time: 04-03-2021 21:20 GMT